Aviation Digital Data Service (ADDS)

Output produced by METARs form (0531 UTC 19 March 2019)
found at http://www.aviationweather.gov/metar/data/
 
Forecast for: EPWA (WARSAW/OKECIE , PL)
Text: TAF EPWA 190530Z 1906/2006 26010KT CAVOK
Forecast period: 0600 UTC 19 March 2019 to 0600 UTC 20 March 2019
Forecast type: FROM: standard forecast or significant change
Winds: from the W (260 degrees) at 12 MPH (10 knots; 5.1 m/s)
Visibility: 6 or more miles 10+ km)
Ceiling: unknown
Clouds: missing
Weather: NSW  (no significant weather)
Text: PROB40
Forecast period: 0600 to 0900 UTC 19 March 2019
Forecast type: TEMPORARY: The following changes expected for less than half the time period
Visibility: missing
Ceiling: 1200 feet AGL
Clouds: broken clouds at 1200 feet AGL
Weather: no significant weather forecast for this period
Text: TEMPO 1906/1909 BKN012
Forecast period: 0800 to 1800 UTC 19 March 2019
Forecast type: TEMPORARY: The following changes expected for less than half the time period
Visibility: missing
Ceiling: at least 12,000 feet AGL
Clouds: scattered clouds at 3000 feet AGL
Weather: -SHRA  (light rain showers)
Text: TEMPO 1908/1918 -SHRA SCT030TCU
Forecast period: 0000 to 0600 UTC 20 March 2019
Forecast type: TEMPORARY: The following changes expected for less than half the time period
Visibility: 2.49 miles (4.01 km)
Ceiling: unknown
Clouds: missing
Weather: BR  (mist)